Sant Martí Sacalm





Hora UTC 07:00
Temperatura 2.5 ºC
Humitat 92.9 %
Pressió 998.7 hPa
Pluja 0.0 mm
Velocitat vent 0.3 km/h
Direcció vent ENE
Radiació solar 10.8 W/m²

Dades diàries 2019-11-15



Hora UTC (hivern +1h; estiu +2h)
Temperatura (ºC) Humitat (%) Pressió (hPa) Velocitat vent (km/h) Precipitació (mm) Radiació solar (W/m²)
Hora UTC Aire Humitat Pressió Vel. Dir. Vel. Max Dir. Intent. màx 5 min. Rad. Sol.
00:05 2.3 95.2 997.8 10.3 SW 10.3 WSW 0.0 0.1
00:10 1.9 95.8 997.8 9.6 SW 13.1 SW 0.0 0.1
00:15 1.6 97.5 997.8 7.2 SW 9.9 WSW 0.0 0.1
00:20 1.8 98.7 997.8 8.5 SW 12.0 WSW 0.0 0.1
00:25 2.0 98.8 997.8 9.2 SW 13.4 SW 0.0 0.1
00:30 2.0 98.9 998.0 11.1 SW 13.8 SW 0.0 0.1
00:35 2.1 99.1 998.0 10.8 SW 13.4 WSW 0.0 0.1
00:40 2.0 99.2 997.9 9.2 SW 12.7 WSW 0.0 0.1
00:45 1.9 99.4 997.9 10.7 SW 14.1 SW 0.0 0.1
00:50 1.9 99.6 998.0 10.1 SSW 12.7 SW 0.0 0.1
00:55 1.9 99.7 998.0 8.4 SW 11.7 SW 0.0 0.1
01:00 1.9 99.8 998.0 9.8 SSW 13.8 SW 0.0 0.1
01:05 1.8 99.8 997.9 7.8 SW 12.0 SW 0.0 0.1
01:10 1.6 99.8 997.9 8.5 SW 11.3 SW 0.0 0.1
01:15 1.7 100.0 997.9 9.5 SW 12.7 SW 0.0 0.1
01:20 1.8 100.0 998.0 6.0 SW 9.9 WSW 0.0 0.1
01:25 1.9 99.9 998.0 4.4 SW 7.1 SW 0.0 0.1
01:30 1.9 99.6 998.1 4.4 SW 8.5 SSW 0.0 0.1
01:35 1.9 98.8 998.0 5.5 SW 8.5 SW 0.0 0.1
01:40 1.9 97.0 998.0 5.6 SW 8.8 SW 0.0 0.1
01:45 2.0 95.1 998.0 8.4 SW 11.7 SSW 0.0 0.1
01:50 2.1 94.0 998.1 8.0 SW 13.1 SW 0.0 0.1
01:55 1.9 95.3 998.1 7.3 SW 11.0 SW 0.0 0.1
02:00 1.7 97.2 998.2 8.4 SSW 12.4 SSW 0.0 0.1
02:05 1.6 98.4 998.2 10.1 SW 13.4 SW 0.0 0.1
02:10 1.6 99.0 998.1 10.5 SW 13.8 SW 0.0 0.1
02:15 1.5 99.2 998.1 12.2 SW 16.6 SW 0.0 0.1
02:20 1.5 99.4 998.1 11.8 SW 16.2 WSW 0.0 0.1
02:25 1.5 99.4 998.1 10.3 SW 14.5 SW 0.0 0.1
02:30 1.4 99.4 998.1 9.5 WSW 12.4 WSW 0.0 0.1
02:35 1.4 99.4 998.1 9.4 WSW 12.0 SW 0.0 0.1
02:40 1.5 99.1 998.1 7.4 SW 11.3 W 0.0 0.1
02:45 1.6 98.6 998.1 6.7 WSW 9.5 WSW 0.0 0.1
02:50 1.7 97.4 998.1 8.3 WSW 11.7 WSW 0.0 0.1
02:55 1.9 95.6 998.1 8.2 WSW 11.3 SW 0.0 0.1
03:00 2.0 94.6 998.2 4.9 WSW 8.1 WSW 0.0 0.1
03:05 2.1 93.6 998.2 3.5 WSW 5.7 WSW 0.0 0.1
03:10 2.1 93.5 998.2 4.6 N 8.5 NNE 0.0 0.1
03:15 2.0 95.0 998.3 5.9 ENE 9.5 ENE 0.0 0.1
03:20 1.8 95.3 998.3 5.1 ENE 9.2 NNE 0.0 0.1
03:25 1.6 95.7 998.3 3.1 NE 5.7 ENE 0.0 0.1
03:30 1.8 95.3 998.4 3.1 N 6.0 N 0.0 0.1
03:35 2.1 92.6 998.3 1.7 ENE 4.2 NNE 0.0 0.1
03:40 1.9 93.4 998.4 2.3 SE 4.2 SE 0.0 0.1
03:45 1.9 94.1 998.4 4.0 ESE 5.7 SE 0.0 0.1
03:50 1.8 94.1 998.3 4.4 E 5.7 ESE 0.0 0.1
03:55 1.8 94.4 998.3 4.2 NNE 6.0 NE 0.0 0.1
04:00 1.8 94.1 998.3 4.4 NE 6.7 ENE 0.0 0.1
04:05 1.7 94.6 998.3 6.5 ENE 8.1 ENE 0.0 0.1
04:10 1.7 95.2 998.4 5.8 ENE 8.1 ENE 0.0 0.1
04:15 1.6 95.2 998.5 3.5 E 5.0 ENE 0.0 0.1
04:20 1.6 95.5 998.5 4.3 ENE 5.7 ENE 0.0 0.1
04:25 1.6 95.2 998.5 3.3 NW 6.4 WNW 0.0 0.1
04:30 1.8 93.8 998.5 3.2 WNW 5.0 WNW 0.0 0.1
04:35 2.0 92.7 998.4 3.9 NW 5.3 NW 0.0 0.1
04:40 2.0 92.1 998.4 4.4 NW 6.0 NW 0.0 0.1
04:45 2.0 92.2 998.4 3.6 NNW 5.3 NW 0.0 0.1
04:50 2.1 92.2 998.3 4.6 NNE 6.4 NNE 0.0 0.1
04:55 2.1 92.5 998.3 6.0 NNE 9.2 N 0.0 0.1
05:00 2.0 92.8 998.3 6.3 N 9.2 N 0.0 0.1
05:05 2.2 92.0 998.4 4.7 N 6.4 NNW 0.0 0.1
05:10 2.4 90.7 998.3 5.2 NNE 6.7 NNE 0.0 0.1
05:15 2.3 91.2 998.4 4.1 NNE 6.4 NNE 0.0 0.1
05:20 2.0 92.7 998.5 4.5 NE 6.7 NE 0.0 0.1
05:25 2.0 93.7 998.5 6.1 NE 7.8 NE 0.0 0.1
05:30 2.2 92.3 998.5 5.4 NNE 7.1 NNE 0.0 0.1
05:35 2.2 92.2 998.5 7.1 NNE 9.9 NNE 0.0 0.1
05:40 2.2 92.9 998.5 6.0 NNE 8.8 NNE 0.0 0.1
05:45 2.2 92.6 998.5 6.1 NE 8.1 NNE 0.0 0.1
05:50 2.0 93.3 998.6 5.0 ENE 6.7 ENE 0.0 0.1
05:55 1.8 94.4 998.6 4.2 ENE 6.4 NE 0.0 0.1
06:00 2.0 94.6 998.6 6.5 NE 8.1 NE 0.0 0.1
06:05 2.0 94.3 998.5 6.2 NE 8.8 NE 0.0 0.1
06:10 2.1 94.0 998.5 6.3 NE 9.9 NNE 0.0 0.1
06:15 2.1 93.9 998.5 5.9 ENE 10.6 NE 0.0 0.1
06:20 2.1 93.9 998.5 5.0 ENE 9.9 NE 0.0 0.1
06:25 2.0 94.3 998.6 6.9 ENE 8.8 ENE 0.0 0.1
06:30 2.1 94.2 998.6 6.7 NE 9.2 NE 0.0 0.4
06:35 2.2 93.5 998.6 5.1 ENE 8.1 NE 0.0 0.9
06:40 2.4 92.4 998.6 4.0 NE 7.1 NE 0.0 1.7
06:45 2.4 92.7 998.6 5.2 E 7.1 E 0.0 2.7
06:50 2.2 93.9 998.7 4.3 ENE 7.1 E 0.0 4.1
06:55 2.3 93.8 998.7 1.8 E 3.9 E 0.0 8.1
07:00 2.5 92.9 998.7 0.3 ENE 2.1 ESE 0.0 10.8
Màxima 2.6 100.0 998.7 12.2 SW 16.6 SW 0.0 10.8
Mínima 1.3 90.7 997.8
Total 0.0